Time;durP1;ratioP1;P1;durP2;ratioP2;P2;SDS_P1;SDS_P2;PMS_P1;PMS_P2;Temp;Humidity;BMP_temperature;BMP_pressure;BME280_temperature;BME280_humidity;BME280_pressure;Samples;Min_cycle;Max_cycle;Signal;HPM_P1;HPM_P2
2022/04/26 03:37:40;;;;;;;23.10;15.98;;;;;;;;;;5089282;28;20578;-75
2022/04/26 03:40:07;;;;;;;23.35;15.35;;;;;;;;;;5089218;28;20047;-76
2022/04/26 03:42:35;;;;;;;24.85;16.35;;;;;;;;;;5089003;28;20035;-75
2022/04/26 03:45:16;;;;;;;26.55;15.52;;;;;;;;;;5089042;28;20036;-75
2022/04/26 03:47:42;;;;;;;23.50;16.90;;;;;;;;;;5073852;28;20042;-75
2022/04/26 03:50:08;;;;;;;23.92;15.50;;;;;;;;;;5089078;28;20048;-76
2022/04/26 03:52:34;;;;;;;21.92;15.55;;;;;;;;;;5087613;28;20043;-75
2022/04/26 03:55:04;;;;;;;23.92;15.30;;;;;;;;;;5086893;28;20071;-76
2022/04/26 03:57:30;;;;;;;23.13;15.18;;;;;;;;;;5070067;28;20032;-75
2022/04/26 03:59:57;;;;;;;23.05;15.82;;;;;;;;;;5087025;28;20036;-76
2022/04/26 04:02:23;;;;;;;22.08;14.50;;;;;;;;;;5087500;28;20556;-76
2022/04/26 04:04:49;;;;;;;24.00;15.55;;;;;;;;;;5090767;28;20498;-76
2022/04/26 04:07:15;;;;;;;26.98;16.00;;;;;;;;;;5088989;28;20044;-76
2022/04/26 04:09:41;;;;;;;21.85;14.50;;;;;;;;;;5070608;28;20131;-76
2022/04/26 04:12:08;;;;;;;23.38;14.95;;;;;;;;;;5078797;28;20044;-76
2022/04/26 04:14:34;;;;;;;27.52;16.05;;;;;;;;;;5085791;28;20040;-76
2022/04/26 04:17:00;;;;;;;22.15;15.27;;;;;;;;;;5089628;28;20032;-75
2022/04/26 04:19:27;;;;;;;22.52;15.35;;;;;;;;;;5087306;28;20502;-76
2022/04/26 04:21:53;;;;;;;22.13;13.77;;;;;;;;;;5090054;28;20051;-76
2022/04/26 04:24:20;;;;;;;25.00;14.20;;;;;;;;;;5090171;28;20032;-76
2022/04/26 04:26:46;;;;;;;22.95;14.05;;;;;;;;;;5089829;28;20071;-75
2022/04/26 04:29:13;;;;;;;24.38;14.50;;;;;;;;;;5090250;28;20040;-75
2022/04/26 04:31:40;;;;;;;23.83;14.50;;;;;;;;;;5090023;28;20039;-75
2022/04/26 04:34:07;;;;;;;23.50;12.85;;;;;;;;;;5089815;28;20056;-76
2022/04/26 04:36:33;;;;;;;24.38;13.85;;;;;;;;;;5089964;28;20059;-75
2022/04/26 04:38:59;;;;;;;19.83;13.40;;;;;;;;;;5090213;28;20517;-75
2022/04/26 04:41:26;;;;;;;20.10;12.05;;;;;;;;;;5089822;28;20129;-75
2022/04/26 04:43:52;;;;;;;20.08;12.52;;;;;;;;;;5089860;28;20119;-75
2022/04/26 04:46:18;;;;;;;21.42;12.10;;;;;;;;;;5088297;28;20081;-75
2022/04/26 04:48:44;;;;;;;21.70;11.77;;;;;;;;;;5089097;28;20044;-75
2022/04/26 04:51:10;;;;;;;19.98;12.60;;;;;;;;;;5089021;28;20043;-75
2022/04/26 04:53:36;;;;;;;18.17;11.40;;;;;;;;;;5084244;28;20053;-75
2022/04/26 04:56:03;;;;;;;19.38;10.93;;;;;;;;;;5085814;28;20093;-75
2022/04/26 04:58:29;;;;;;;16.02;10.52;;;;;;;;;;5084354;28;20143;-75
2022/04/26 05:00:55;;;;;;;14.45;9.75;;;;;;;;;;5089451;28;20036;-75
2022/04/26 05:03:21;;;;;;;18.80;10.73;;;;;;;;;;5089653;28;20068;-75
2022/04/26 05:05:47;;;;;;;17.58;10.40;;;;;;;;;;5089714;28;20044;-75
2022/04/26 05:08:13;;;;;;;19.45;10.07;;;;;;;;;;5089484;28;20051;-75
2022/04/26 05:10:41;;;;;;;19.42;10.13;;;;;;;;;;5089136;28;20488;-75
2022/04/26 05:13:08;;;;;;;17.90;9.63;;;;;;;;;;5089486;28;20040;-75
2022/04/26 05:15:36;;;;;;;18.13;10.13;;;;;;;;;;5085090;28;20048;-75
2022/04/26 05:18:02;;;;;;;19.17;10.18;;;;;;;;;;5088694;28;20040;-75
2022/04/26 05:20:28;;;;;;;16.15;10.05;;;;;;;;;;5089403;28;20082;-75
2022/04/26 05:25:39;;;;;;;15.45;9.55;;;;;;;;;;5085712;28;20686;-75
2022/04/26 05:28:05;;;;;;;15.43;9.73;;;;;;;;;;5079744;28;20522;-75
2022/04/26 05:30:31;;;;;;;18.48;9.65;;;;;;;;;;5093372;28;20332;-75
2022/04/26 05:32:57;;;;;;;19.38;8.65;;;;;;;;;;5088998;28;20040;-76
2022/04/26 05:35:24;;;;;;;16.88;9.70;;;;;;;;;;5091741;28;20052;-75
2022/04/26 05:37:51;;;;;;;17.13;9.27;;;;;;;;;;5092095;28;20077;-75
2022/04/26 05:40:17;;;;;;;17.80;8.80;;;;;;;;;;5091906;28;20035;-75
2022/04/26 05:42:43;;;;;;;18.08;9.82;;;;;;;;;;5092088;28;20511;-75
2022/04/26 05:45:09;;;;;;;19.25;9.90;;;;;;;;;;5091818;28;20043;-75
2022/04/26 05:47:40;;;;;;;15.23;8.45;;;;;;;;;;5091766;28;20058;-75
2022/04/26 05:50:07;;;;;;;18.75;8.95;;;;;;;;;;5092712;28;20379;-75
2022/04/26 05:52:33;;;;;;;17.70;9.07;;;;;;;;;;5091766;28;20126;-76
2022/04/26 05:55:07;;;;;;;16.23;8.63;;;;;;;;;;5092228;28;20044;-75
2022/04/26 05:57:36;;;;;;;14.67;7.90;;;;;;;;;;5091768;28;20040;-75
2022/04/26 06:00:04;;;;;;;13.45;8.10;;;;;;;;;;5092172;28;20394;-76
2022/04/26 06:02:30;;;;;;;15.27;7.75;;;;;;;;;;5091616;28;20039;-76
2022/04/26 06:04:56;;;;;;;17.55;8.70;;;;;;;;;;5085979;28;20044;-76
2022/04/26 06:07:22;;;;;;;14.70;8.50;;;;;;;;;;5092023;28;20040;-75
2022/04/26 06:09:53;;;;;;;15.88;7.80;;;;;;;;;;5091455;28;20039;-75
2022/04/26 06:12:20;;;;;;;16.20;7.82;;;;;;;;;;5091590;28;20102;-75
2022/04/26 06:14:46;;;;;;;12.68;7.50;;;;;;;;;;5091466;28;20079;-77
2022/04/26 06:17:12;;;;;;;17.00;7.43;;;;;;;;;;5091539;28;20036;-76
2022/04/26 06:19:39;;;;;;;13.00;7.63;;;;;;;;;;5091322;28;20522;-76
2022/04/26 06:22:05;;;;;;;14.55;7.47;;;;;;;;;;5091220;28;20031;-76
2022/04/26 06:24:31;;;;;;;17.10;7.63;;;;;;;;;;5091852;28;20043;-75
2022/04/26 06:26:57;;;;;;;13.77;7.72;;;;;;;;;;5091454;28;20555;-76
2022/04/26 06:29:23;;;;;;;14.52;7.50;;;;;;;;;;5090913;28;20050;-76
2022/04/26 06:31:49;;;;;;;14.57;8.02;;;;;;;;;;5091275;28;20511;-76
2022/04/26 06:34:17;;;;;;;13.73;6.80;;;;;;;;;;5091171;28;20077;-76
2022/04/26 06:36:43;;;;;;;16.75;8.25;;;;;;;;;;5074263;28;20059;-75
2022/04/26 06:39:09;;;;;;;13.20;7.90;;;;;;;;;;5091313;28;20451;-76
2022/04/26 06:41:36;;;;;;;12.15;7.85;;;;;;;;;;5091554;28;20069;-75
2022/04/26 06:44:02;;;;;;;13.70;7.57;;;;;;;;;;5074495;28;20042;-75
2022/04/26 06:46:28;;;;;;;12.48;7.22;;;;;;;;;;5090911;28;20062;-76
2022/04/26 06:48:58;;;;;;;14.80;7.60;;;;;;;;;;5091121;28;20051;-76
2022/04/26 06:51:25;;;;;;;12.23;7.40;;;;;;;;;;5074564;28;20411;-76
2022/04/26 06:53:51;;;;;;;15.52;7.38;;;;;;;;;;5090685;28;20039;-76
2022/04/26 06:56:17;;;;;;;18.33;7.05;;;;;;;;;;5090018;28;20380;-75
2022/04/26 06:58:43;;;;;;;16.13;7.38;;;;;;;;;;5090812;28;20526;-75
2022/04/26 07:01:09;;;;;;;10.25;7.60;;;;;;;;;;5091110;28;20479;-76
2022/04/26 07:03:36;;;;;;;14.77;7.07;;;;;;;;;;5090837;28;20036;-76
2022/04/26 07:06:06;;;;;;;12.32;7.13;;;;;;;;;;5091336;28;20148;-76
2022/04/26 07:08:32;;;;;;;13.80;6.80;;;;;;;;;;5090960;28;20043;-75
2022/04/26 07:10:58;;;;;;;14.55;7.15;;;;;;;;;;5090571;28;20040;-75
2022/04/26 07:13:34;;;;;;;12.88;6.00;;;;;;;;;;5090965;28;20053;-75
2022/04/26 07:16:00;;;;;;;13.02;6.28;;;;;;;;;;5090499;28;20051;-75
2022/04/26 07:18:27;;;;;;;13.75;5.55;;;;;;;;;;5090603;28;20036;-76
2022/04/26 07:20:53;;;;;;;11.30;5.25;;;;;;;;;;5090411;28;20038;-75
2022/04/26 07:23:19;;;;;;;12.20;5.60;;;;;;;;;;5090467;28;20044;-76
2022/04/26 07:25:46;;;;;;;9.98;5.15;;;;;;;;;;5090605;28;20133;-75
2022/04/26 07:28:12;;;;;;;13.73;5.30;;;;;;;;;;5090239;28;20054;-76
2022/04/26 07:30:39;;;;;;;10.93;5.22;;;;;;;;;;5090323;28;20035;-76
2022/04/26 07:35:51;;;;;;;11.05;4.80;;;;;;;;;;5109241;28;20096;-75
2022/04/26 07:38:17;;;;;;;12.23;4.97;;;;;;;;;;5092634;28;20043;-76
2022/04/26 07:41:02;;;;;;;13.25;5.47;;;;;;;;;;5077837;28;20039;-74
2022/04/26 07:43:28;;;;;;;10.88;4.85;;;;;;;;;;5094566;28;20503;-77
2022/04/26 07:45:54;;;;;;;12.18;4.20;;;;;;;;;;5094608;28;20041;-75
2022/04/26 07:48:22;;;;;;;10.25;4.20;;;;;;;;;;5094756;28;20047;-75
2022/04/26 07:50:48;;;;;;;12.65;4.65;;;;;;;;;;5095095;28;20047;-75
2022/04/26 07:53:15;;;;;;;9.65;4.65;;;;;;;;;;5094171;28;20036;-74
2022/04/26 07:55:41;;;;;;;11.85;5.00;;;;;;;;;;5094327;28;20074;-75
2022/04/26 07:58:07;;;;;;;8.70;4.03;;;;;;;;;;5093747;28;20032;-75
2022/04/26 08:00:35;;;;;;;9.00;4.00;;;;;;;;;;5094260;28;20046;-76
2022/04/26 08:03:02;;;;;;;9.00;4.45;;;;;;;;;;5094004;28;20051;-76
2022/04/26 08:05:30;;;;;;;8.90;3.78;;;;;;;;;;5093893;28;20071;-74
2022/04/26 08:07:56;;;;;;;10.95;4.15;;;;;;;;;;5077127;28;20067;-76
2022/04/26 08:10:23;;;;;;;10.93;4.75;;;;;;;;;;5093655;28;20096;-76
2022/04/26 08:12:49;;;;;;;8.38;4.15;;;;;;;;;;5093460;28;20042;-76
2022/04/26 08:15:24;;;;;;;12.05;4.40;;;;;;;;;;5093547;28;20499;-76
2022/04/26 08:17:50;;;;;;;8.70;3.90;;;;;;;;;;5076861;28;20160;-76
2022/04/26 08:20:16;;;;;;;11.38;4.45;;;;;;;;;;5093683;28;20054;-77
2022/04/26 08:22:43;;;;;;;9.55;4.13;;;;;;;;;;5093631;28;20506;-77
2022/04/26 08:27:54;;;;;;;13.98;4.25;;;;;;;;;;5093211;28;20104;-76
2022/04/26 08:30:20;;;;;;;10.20;4.28;;;;;;;;;;5093875;28;20045;-76
2022/04/26 08:32:48;;;;;;;8.18;4.03;;;;;;;;;;5093588;28;20058;-76
2022/04/26 08:35:22;;;;;;;9.13;4.03;;;;;;;;;;5093129;28;20047;-76
2022/04/26 08:37:48;;;;;;;7.32;3.70;;;;;;;;;;5093527;28;20523;-77
2022/04/26 08:40:15;;;;;;;12.82;4.00;;;;;;;;;;5093118;28;20177;-76
2022/04/26 08:42:46;;;;;;;12.05;4.75;;;;;;;;;;5093554;28;20406;-76
2022/04/26 08:45:13;;;;;;;12.23;4.55;;;;;;;;;;5076649;28;20067;-78
2022/04/26 08:53:10;;;;;;;;;;;;;;;;;;5094155;28;20088;-77
2022/04/26 08:55:43;;;;;;;8.90;3.80;;;;;;;;;;5093456;28;19982;-77
2022/04/26 08:58:11;;;;;;;7.75;4.28;;;;;;;;;;5093454;28;20119;-77
2022/04/26 09:00:39;;;;;;;8.70;4.03;;;;;;;;;;5093217;28;20096;-77
2022/04/26 09:03:07;;;;;;;9.30;3.90;;;;;;;;;;5092978;28;20051;-76
2022/04/26 09:05:33;;;;;;;10.95;4.22;;;;;;;;;;5093186;28;20061;-78
2022/04/26 09:08:00;;;;;;;11.88;5.05;;;;;;;;;;5092476;28;20035;-77
2022/04/26 09:10:29;;;;;;;9.25;4.63;;;;;;;;;;5093329;28;20044;-77
2022/04/26 09:13:01;;;;;;;9.02;4.05;;;;;;;;;;5093159;28;20035;-77
2022/04/26 09:15:33;;;;;;;9.77;4.00;;;;;;;;;;5092791;28;20043;-79
2022/04/26 09:18:24;;;;;;;10.02;3.70;;;;;;;;;;5076959;28;20085;-78
2022/04/26 09:20:55;;;;;;;10.15;3.65;;;;;;;;;;5092397;28;20039;-77
2022/04/26 09:23:23;;;;;;;7.70;3.28;;;;;;;;;;5092121;28;20092;-77
2022/04/26 09:25:51;;;;;;;6.57;3.50;;;;;;;;;;5092898;28;20066;-78
2022/04/26 09:28:22;;;;;;;9.02;3.90;;;;;;;;;;5093007;28;20047;-76
2022/04/26 09:30:48;;;;;;;11.27;4.28;;;;;;;;;;5092417;28;20035;-76
2022/04/26 09:33:47;;;;;;;8.32;4.22;;;;;;;;;;5092669;28;20487;-78
2022/04/26 09:36:24;;;;;;;11.70;4.43;;;;;;;;;;5080705;28;20040;-76
2022/04/26 09:38:52;;;;;;;8.40;3.90;;;;;;;;;;5092288;28;20045;-77
2022/04/26 09:41:18;;;;;;;10.30;4.60;;;;;;;;;;5092166;28;20035;-78
2022/04/26 09:43:55;;;;;;;9.30;4.30;;;;;;;;;;5092208;28;20036;-78
2022/04/26 09:46:21;;;;;;;7.93;4.05;;;;;;;;;;5092535;28;20146;-77
2022/04/26 09:48:48;;;;;;;8.10;3.97;;;;;;;;;;5092494;28;20534;-77
2022/04/26 09:51:14;;;;;;;9.45;3.90;;;;;;;;;;5075591;28;20048;-77
2022/04/26 09:53:40;;;;;;;8.60;3.70;;;;;;;;;;5092221;28;20086;-77
2022/04/26 09:56:06;;;;;;;5.78;3.50;;;;;;;;;;5092627;28;20078;-79
2022/04/26 09:58:34;;;;;;;6.80;3.58;;;;;;;;;;5092131;28;20051;-77
2022/04/26 10:01:04;;;;;;;7.45;3.88;;;;;;;;;;5091735;28;20451;-77
2022/04/26 10:03:39;;;;;;;9.70;4.18;;;;;;;;;;5091794;28;20505;-77
2022/04/26 10:06:06;;;;;;;10.05;3.90;;;;;;;;;;5091907;28;20456;-78
2022/04/26 10:08:34;;;;;;;8.73;4.00;;;;;;;;;;5091980;28;20051;-77
2022/04/26 10:11:01;;;;;;;7.22;3.95;;;;;;;;;;5091694;28;20099;-79
2022/04/26 10:13:32;;;;;;;7.47;3.55;;;;;;;;;;5091700;28;20491;-78
2022/04/26 10:16:06;;;;;;;7.25;3.90;;;;;;;;;;5091600;28;20648;-78
2022/04/26 10:18:45;;;;;;;7.82;3.40;;;;;;;;;;5091595;28;20185;-78
2022/04/26 10:21:23;;;;;;;8.30;3.63;;;;;;;;;;5091590;28;20035;-79
2022/04/26 10:23:54;;;;;;;8.25;4.15;;;;;;;;;;5091262;28;20032;-80
2022/04/26 10:28:51;;;;;;;9.13;4.20;;;;;;;;;;5109049;28;20070;-79
2022/04/26 10:31:22;;;;;;;8.60;4.55;;;;;;;;;;5091252;28;20035;-79
2022/04/26 10:33:48;;;;;;;8.00;3.92;;;;;;;;;;5090681;28;20067;-78
2022/04/26 10:36:32;;;;;;;7.50;3.97;;;;;;;;;;5090845;28;20048;-78
2022/04/26 10:39:07;;;;;;;7.07;4.25;;;;;;;;;;5091199;28;20031;-78
2022/04/26 10:41:36;;;;;;;8.30;4.72;;;;;;;;;;5091091;28;20109;-77
2022/04/26 10:44:22;;;;;;;8.02;4.10;;;;;;;;;;5091052;28;20035;-79
2022/04/26 10:47:09;;;;;;;9.13;4.40;;;;;;;;;;5110971;27;20134;-78
2022/04/26 10:49:52;;;;;;;8.50;4.60;;;;;;;;;;5090864;28;20082;-78
2022/04/26 10:52:24;;;;;;;8.07;4.30;;;;;;;;;;5090922;28;20039;-76
2022/04/26 10:54:59;;;;;;;7.95;4.10;;;;;;;;;;5090996;28;20064;-80
2022/04/26 10:57:26;;;;;;;9.90;3.58;;;;;;;;;;5091557;28;20028;-79
2022/04/26 10:59:54;;;;;;;6.47;3.22;;;;;;;;;;5091714;28;20498;-78
2022/04/26 11:02:21;;;;;;;7.50;3.60;;;;;;;;;;5091268;28;20039;-79
2022/04/26 11:04:55;;;;;;;9.60;4.03;;;;;;;;;;5091008;28;20084;-78
2022/04/26 11:07:25;;;;;;;8.57;3.87;;;;;;;;;;5091426;28;20357;-77
2022/04/26 11:09:53;;;;;;;7.88;3.70;;;;;;;;;;5090806;28;20496;-78
2022/04/26 11:12:27;;;;;;;8.48;4.22;;;;;;;;;;5089541;28;20043;-78
2022/04/26 11:15:13;;;;;;;8.75;3.95;;;;;;;;;;5090575;28;20056;-78
2022/04/26 11:17:40;;;;;;;7.57;3.70;;;;;;;;;;5091555;28;20028;-78
2022/04/26 11:20:12;;;;;;;7.43;4.00;;;;;;;;;;5090783;28;20042;-79
2022/04/26 11:22:44;;;;;;;9.65;4.10;;;;;;;;;;5090884;28;20353;-78
2022/04/26 11:28:00;;;;;;;7.57;3.85;;;;;;;;;;5109653;28;20044;-78
2022/04/26 11:30:31;;;;;;;9.65;4.05;;;;;;;;;;5090654;28;20044;-78
2022/04/26 11:32:58;;;;;;;9.27;3.72;;;;;;;;;;5090450;28;20043;-78
2022/04/26 11:35:24;;;;;;;7.15;3.78;;;;;;;;;;5090359;28;20314;-79
2022/04/26 11:37:55;;;;;;;8.90;4.00;;;;;;;;;;5090793;28;20039;-78
2022/04/26 11:40:22;;;;;;;8.60;4.35;;;;;;;;;;5090242;28;20043;-79
2022/04/26 11:42:49;;;;;;;8.20;3.75;;;;;;;;;;5073884;28;20066;-78
2022/04/26 11:45:15;;;;;;;6.78;3.65;;;;;;;;;;5090659;28;20050;-79
2022/04/26 11:47:43;;;;;;;8.18;3.88;;;;;;;;;;5090498;28;20518;-79
2022/04/26 11:50:14;;;;;;;8.35;3.80;;;;;;;;;;5090367;28;20118;-80
2022/04/26 11:52:43;;;;;;;10.23;3.70;;;;;;;;;;5090580;28;20538;-78
2022/04/26 11:55:19;;;;;;;7.45;3.85;;;;;;;;;;5090618;28;20040;-79
2022/04/26 11:57:46;;;;;;;8.98;4.18;;;;;;;;;;5090269;28;20082;-78
2022/04/26 12:00:12;;;;;;;7.13;4.00;;;;;;;;;;5090422;28;20040;-77
2022/04/26 12:02:39;;;;;;;7.72;4.30;;;;;;;;;;5090531;28;20559;-79
2022/04/26 12:05:08;;;;;;;7.10;3.55;;;;;;;;;;5091262;28;20569;-79
2022/04/26 12:07:34;;;;;;;6.72;3.75;;;;;;;;;;5073084;28;20044;-79
2022/04/26 12:10:01;;;;;;;8.60;4.22;;;;;;;;;;5089751;28;20122;-80
2022/04/26 12:12:27;;;;;;;9.75;4.53;;;;;;;;;;5090161;28;20624;-78
2022/04/26 12:14:55;;;;;;;7.78;4.10;;;;;;;;;;5089958;28;20421;-79
2022/04/26 12:17:29;;;;;;;7.80;4.10;;;;;;;;;;5090282;28;20039;-78
2022/04/26 12:19:56;;;;;;;6.53;3.90;;;;;;;;;;5082030;28;20044;-78
2022/04/26 12:22:28;;;;;;;9.73;4.30;;;;;;;;;;5119955;28;20047;-79
2022/04/26 12:24:54;;;;;;;8.80;3.88;;;;;;;;;;5076751;28;20119;-78
2022/04/26 12:27:26;;;;;;;6.53;3.72;;;;;;;;;;5093329;28;20055;-79
2022/04/26 12:29:53;;;;;;;6.68;3.75;;;;;;;;;;5076957;28;20073;-79
2022/04/26 12:32:26;;;;;;;7.78;3.58;;;;;;;;;;5076669;28;20043;-79
2022/04/26 12:34:54;;;;;;;6.13;3.42;;;;;;;;;;5093180;28;20062;-78
2022/04/26 12:37:25;;;;;;;7.38;3.78;;;;;;;;;;5093243;28;20046;-78
2022/04/26 12:39:53;;;;;;;7.90;3.42;;;;;;;;;;5093262;28;20036;-80
2022/04/26 12:42:29;;;;;;;8.88;3.65;;;;;;;;;;5093484;28;20040;-79
2022/04/26 12:44:56;;;;;;;9.60;3.40;;;;;;;;;;5093200;28;20045;-79
2022/04/26 12:50:28;;;;;;;11.43;3.90;;;;;;;;;;5093019;28;20054;-77
2022/04/26 12:53:14;;;;;;;8.18;3.40;;;;;;;;;;5076390;28;20108;-78
2022/04/26 12:55:42;;;;;;;6.63;2.95;;;;;;;;;;5082591;28;20047;-78
2022/04/26 12:58:09;;;;;;;6.80;3.15;;;;;;;;;;5093026;28;20042;-78
2022/04/26 13:00:43;;;;;;;7.88;3.28;;;;;;;;;;5093183;28;20395;-78
2022/04/26 13:03:10;;;;;;;8.60;3.58;;;;;;;;;;5092868;28;20051;-79
2022/04/26 13:05:41;;;;;;;7.88;3.53;;;;;;;;;;5093006;28;20129;-78
2022/04/26 13:08:07;;;;;;;7.32;3.63;;;;;;;;;;5076511;28;20040;-78
2022/04/26 13:10:33;;;;;;;5.93;3.17;;;;;;;;;;5076505;28;20046;-79
2022/04/26 13:13:00;;;;;;;7.75;3.22;;;;;;;;;;5092535;28;20085;-78
2022/04/26 13:15:27;;;;;;;5.32;3.08;;;;;;;;;;5093251;28;20054;-79
2022/04/26 13:17:53;;;;;;;7.30;3.05;;;;;;;;;;5092131;28;20175;-78
2022/04/26 13:20:20;;;;;;;8.23;3.38;;;;;;;;;;5092987;28;20036;-79
2022/04/26 13:22:46;;;;;;;5.97;3.05;;;;;;;;;;5075846;28;20035;-80
2022/04/26 13:25:12;;;;;;;8.20;3.20;;;;;;;;;;5093009;28;20035;-79
2022/04/26 13:27:39;;;;;;;5.53;2.70;;;;;;;;;;5092803;28;20130;-78
2022/04/26 13:30:06;;;;;;;6.57;3.42;;;;;;;;;;5092966;28;20031;-78
2022/04/26 13:32:33;;;;;;;7.82;3.33;;;;;;;;;;5092592;28;20050;-79
2022/04/26 13:34:59;;;;;;;6.05;3.10;;;;;;;;;;5091301;28;20172;-78
2022/04/26 13:37:26;;;;;;;5.80;2.83;;;;;;;;;;5092187;28;20042;-78
2022/04/26 13:39:54;;;;;;;5.53;3.17;;;;;;;;;;5092385;28;20040;-79
2022/04/26 13:42:23;;;;;;;7.50;3.35;;;;;;;;;;5075594;28;20054;-77
2022/04/26 13:44:52;;;;;;;6.45;3.10;;;;;;;;;;5092541;28;20399;-80
2022/04/26 13:47:19;;;;;;;7.07;3.47;;;;;;;;;;5091935;28;20144;-79
2022/04/26 13:49:45;;;;;;;8.68;3.53;;;;;;;;;;5091874;28;20039;-80
2022/04/26 13:52:13;;;;;;;8.43;3.80;;;;;;;;;;5077015;28;20043;-79
2022/04/26 13:54:54;;;;;;;7.13;3.25;;;;;;;;;;5092180;28;20040;-77
2022/04/26 13:57:20;;;;;;;5.65;3.03;;;;;;;;;;5076221;28;20040;-77
2022/04/26 13:59:47;;;;;;;7.43;3.45;;;;;;;;;;5091759;28;20070;-76
2022/04/26 14:02:13;;;;;;;5.35;2.85;;;;;;;;;;5092205;28;20043;-78
2022/04/26 14:04:39;;;;;;;6.07;3.20;;;;;;;;;;5090104;27;21019;-76
2022/04/26 14:07:06;;;;;;;7.95;3.25;;;;;;;;;;5073549;28;20088;-78
2022/04/26 14:09:32;;;;;;;7.30;3.60;;;;;;;;;;5102697;28;20036;-78
2022/04/26 14:11:59;;;;;;;6.38;3.60;;;;;;;;;;5095570;28;20058;-77
2022/04/26 14:22:41;;;;;;;6.97;3.13;;;;;;;;;;5091635;28;20073;-78
2022/04/26 14:25:08;;;;;;;4.97;3.30;;;;;;;;;;5091805;28;20067;-78
2022/04/26 14:27:35;;;;;;;7.20;3.20;;;;;;;;;;5091109;28;20050;-78
2022/04/26 14:30:02;;;;;;;7.65;3.28;;;;;;;;;;5091135;28;20127;-78
2022/04/26 14:32:28;;;;;;;6.40;3.53;;;;;;;;;;5091009;28;20036;-75
2022/04/26 14:34:54;;;;;;;9.93;4.10;;;;;;;;;;5091489;28;20105;-75
2022/04/26 14:37:22;;;;;;;8.00;4.03;;;;;;;;;;5091522;28;20485;-76
2022/04/26 14:39:49;;;;;;;8.38;3.80;;;;;;;;;;5091467;28;20039;-76
2022/04/26 14:42:15;;;;;;;8.15;3.90;;;;;;;;;;5091078;28;20031;-76
2022/04/26 14:44:42;;;;;;;8.55;4.07;;;;;;;;;;5091237;28;20050;-77
2022/04/26 14:47:09;;;;;;;8.18;4.00;;;;;;;;;;5074330;28;20040;-77
2022/04/26 14:49:35;;;;;;;8.57;3.70;;;;;;;;;;5085552;28;20044;-77
2022/04/26 14:52:01;;;;;;;7.88;3.97;;;;;;;;;;5088497;28;20039;-77
2022/04/26 14:54:31;;;;;;;7.65;4.18;;;;;;;;;;5090773;28;20396;-76
2022/04/26 14:56:57;;;;;;;8.32;4.43;;;;;;;;;;5090460;28;20039;-76
2022/04/26 14:59:23;;;;;;;7.60;3.90;;;;;;;;;;5090802;28;20063;-77
2022/04/26 15:01:50;;;;;;;7.35;4.22;;;;;;;;;;5090689;28;20039;-77
2022/04/26 15:04:17;;;;;;;7.82;4.03;;;;;;;;;;5090925;28;20042;-77
2022/04/26 15:06:43;;;;;;;8.23;3.80;;;;;;;;;;5090538;28;20130;-76
2022/04/26 15:17:25;;;;;;;7.70;3.63;;;;;;;;;;5090278;28;20287;-77
2022/04/26 15:19:51;;;;;;;11.32;3.83;;;;;;;;;;5090817;28;20191;-78
2022/04/26 15:22:19;;;;;;;11.93;3.97;;;;;;;;;;5069982;28;20044;-79
2022/04/26 15:24:48;;;;;;;8.13;3.35;;;;;;;;;;5082539;28;20057;-76
2022/04/26 15:27:15;;;;;;;7.07;3.70;;;;;;;;;;5091096;28;20035;-77
2022/04/26 15:29:42;;;;;;;7.28;3.30;;;;;;;;;;5074448;28;20040;-78
2022/04/26 15:32:09;;;;;;;6.75;3.38;;;;;;;;;;5090939;28;20028;-76
2022/04/26 15:34:36;;;;;;;6.65;3.30;;;;;;;;;;5073933;28;20394;-75
2022/04/26 15:37:02;;;;;;;6.72;3.10;;;;;;;;;;5089985;28;20539;-78
2022/04/26 15:39:28;;;;;;;7.32;3.55;;;;;;;;;;5074178;28;20043;-76
2022/04/26 15:41:56;;;;;;;7.13;3.60;;;;;;;;;;5080734;28;20043;-79
2022/04/26 15:44:22;;;;;;;8.55;3.30;;;;;;;;;;5085568;28;20501;-77
2022/04/26 15:46:52;;;;;;;6.30;3.17;;;;;;;;;;5092824;28;20999;-77
2022/04/26 15:49:20;;;;;;;5.20;3.10;;;;;;;;;;5101942;28;20039;-78
2022/04/26 15:51:47;;;;;;;5.70;3.35;;;;;;;;;;5093675;28;20035;-77
2022/04/26 15:54:16;;;;;;;9.00;3.15;;;;;;;;;;5088027;28;20055;-78
2022/04/26 15:56:43;;;;;;;6.55;3.13;;;;;;;;;;5089584;28;20039;-77
2022/04/26 15:59:09;;;;;;;5.80;3.20;;;;;;;;;;5092394;28;20039;-78
2022/04/26 16:01:36;;;;;;;5.90;3.58;;;;;;;;;;5100266;28;20068;-77
2022/04/26 16:04:04;;;;;;;10.68;3.75;;;;;;;;;;5085705;28;20035;-78
2022/04/26 16:06:30;;;;;;;6.80;3.28;;;;;;;;;;5094290;28;20104;-77
2022/04/26 16:20:28;;;;;;;6.75;3.25;;;;;;;;;;5080645;28;20040;-78
2022/04/26 16:22:48;;;;;;;8.00;3.53;;;;;;;;;;5097763;27;20043;-76
2022/04/26 16:25:15;;;;;;;6.30;3.25;;;;;;;;;;5100343;28;20431;-78
2022/04/26 16:27:41;;;;;;;12.65;3.40;;;;;;;;;;5091359;28;20429;-76
2022/04/26 16:30:09;;;;;;;7.78;3.22;;;;;;;;;;5090449;28;20035;-77
2022/04/26 16:32:35;;;;;;;8.07;3.20;;;;;;;;;;5090311;28;20048;-78
2022/04/26 16:35:01;;;;;;;7.28;3.13;;;;;;;;;;5089524;27;20816;-77
2022/04/26 16:37:28;;;;;;;7.53;3.20;;;;;;;;;;5089573;28;20066;-76
2022/04/26 16:39:54;;;;;;;6.50;3.35;;;;;;;;;;5088670;28;20077;-77
2022/04/26 16:42:20;;;;;;;5.30;3.10;;;;;;;;;;5090666;28;20483;-78
2022/04/26 16:44:46;;;;;;;7.00;3.45;;;;;;;;;;5073851;28;20046;-76
2022/04/26 16:47:12;;;;;;;6.53;3.38;;;;;;;;;;5086476;28;20077;-77
2022/04/26 16:49:41;;;;;;;8.05;3.42;;;;;;;;;;5090630;28;20512;-77
2022/04/26 16:52:07;;;;;;;6.72;3.30;;;;;;;;;;5089669;28;20199;-76
2022/04/26 16:54:34;;;;;;;7.90;3.53;;;;;;;;;;5090626;28;20151;-77
2022/04/26 16:57:01;;;;;;;9.10;3.63;;;;;;;;;;5088558;28;20036;-77
2022/04/26 16:59:29;;;;;;;7.72;3.40;;;;;;;;;;5082502;28;20437;-77
2022/04/26 17:01:56;;;;;;;7.50;3.63;;;;;;;;;;5067805;28;20046;-75
2022/04/26 17:04:22;;;;;;;7.72;4.05;;;;;;;;;;5090427;28;20456;-76
2022/04/26 17:06:49;;;;;;;9.13;3.63;;;;;;;;;;5090595;28;20104;-76
2022/04/26 17:09:16;;;;;;;6.70;3.20;;;;;;;;;;5090888;28;20467;-76
2022/04/26 17:11:43;;;;;;;7.32;3.70;;;;;;;;;;5088755;27;20031;-76
2022/04/26 17:14:10;;;;;;;7.35;3.30;;;;;;;;;;5073610;28;20047;-76
2022/04/26 17:16:36;;;;;;;7.07;3.75;;;;;;;;;;5090162;28;20670;-76
2022/04/26 17:19:03;;;;;;;7.05;3.65;;;;;;;;;;5093052;28;20043;-76
2022/04/26 17:21:29;;;;;;;8.70;3.67;;;;;;;;;;5091922;28;20031;-77
2022/04/26 17:23:55;;;;;;;7.68;3.80;;;;;;;;;;5091887;28;20035;-76
2022/04/26 17:26:22;;;;;;;8.10;4.32;;;;;;;;;;5108593;28;20575;-76
2022/04/26 17:28:48;;;;;;;8.85;3.70;;;;;;;;;;5093366;28;20089;-77
2022/04/26 17:31:14;;;;;;;6.70;3.63;;;;;;;;;;5075507;28;20054;-75
2022/04/26 17:33:42;;;;;;;10.43;4.38;;;;;;;;;;5088799;28;20056;-76
2022/04/26 17:36:09;;;;;;;7.82;3.42;;;;;;;;;;5088798;28;20094;-75
2022/04/26 17:38:44;;;;;;;9.13;3.85;;;;;;;;;;5089166;28;20047;-77
2022/04/26 17:41:10;;;;;;;9.05;3.65;;;;;;;;;;5088790;28;20395;-76
2022/04/26 17:43:37;;;;;;;9.77;3.80;;;;;;;;;;5088557;28;20036;-76
2022/04/26 17:46:11;;;;;;;6.38;3.30;;;;;;;;;;5087527;28;20096;-76
2022/04/26 17:48:37;;;;;;;6.50;3.50;;;;;;;;;;5096635;28;20615;-76
2022/04/26 17:51:03;;;;;;;9.15;3.60;;;;;;;;;;5090386;28;20055;-76
2022/04/26 17:56:30;;;;;;;6.60;3.47;;;;;;;;;;5088464;28;20066;-76
2022/04/26 17:58:56;;;;;;;9.38;3.65;;;;;;;;;;5088550;28;20051;-76
2022/04/26 18:01:27;;;;;;;7.35;3.33;;;;;;;;;;5089063;28;20044;-76
2022/04/26 18:03:53;;;;;;;8.82;3.50;;;;;;;;;;5088442;28;20342;-76
2022/04/26 18:06:20;;;;;;;10.50;3.67;;;;;;;;;;5088041;28;20047;-75
2022/04/26 18:08:46;;;;;;;11.98;3.65;;;;;;;;;;5088369;28;20054;-76
2022/04/26 18:11:12;;;;;;;7.57;4.22;;;;;;;;;;5088767;28;20105;-75
2022/04/26 18:13:39;;;;;;;8.88;3.70;;;;;;;;;;5087439;28;20519;-75
2022/04/26 18:16:05;;;;;;;7.82;3.70;;;;;;;;;;5074752;28;20075;-75
2022/04/26 18:18:32;;;;;;;7.53;3.97;;;;;;;;;;5085924;28;20539;-77
2022/04/26 18:20:59;;;;;;;10.30;5.35;;;;;;;;;;5087463;28;20040;-75
2022/04/26 18:23:26;;;;;;;10.13;3.88;;;;;;;;;;5079120;28;20365;-75
2022/04/26 18:26:11;;;;;;;8.43;3.88;;;;;;;;;;5081927;28;20039;-75
2022/04/26 18:28:45;;;;;;;7.18;3.50;;;;;;;;;;5079402;28;20039;-76
2022/04/26 18:31:11;;;;;;;10.40;4.10;;;;;;;;;;5088021;28;20040;-75
2022/04/26 18:33:39;;;;;;;8.63;4.18;;;;;;;;;;5087420;28;20504;-76
2022/04/26 18:36:09;;;;;;;6.72;3.63;;;;;;;;;;5070731;28;20069;-76
2022/04/26 18:38:36;;;;;;;8.55;4.50;;;;;;;;;;5086431;28;20040;-75
2022/04/26 18:41:02;;;;;;;8.50;4.45;;;;;;;;;;5076109;28;20032;-75
2022/04/26 18:43:29;;;;;;;8.63;4.80;;;;;;;;;;5074697;28;20119;-75
2022/04/26 18:45:57;;;;;;;9.05;4.28;;;;;;;;;;5081894;28;20079;-75
2022/04/26 18:48:23;;;;;;;8.93;4.20;;;;;;;;;;5070703;28;20036;-75
2022/04/26 18:50:50;;;;;;;10.00;4.68;;;;;;;;;;5087351;28;20114;-75
2022/04/26 18:53:16;;;;;;;10.13;4.47;;;;;;;;;;5087224;28;20040;-75
2022/04/26 18:55:42;;;;;;;8.43;4.00;;;;;;;;;;5087166;28;20463;-75
2022/04/26 18:58:11;;;;;;;9.75;4.25;;;;;;;;;;5119141;27;20114;-75
2022/04/26 19:00:37;;;;;;;11.10;4.75;;;;;;;;;;5087212;28;20490;-75
2022/04/26 19:03:04;;;;;;;8.68;4.30;;;;;;;;;;5086899;28;20040;-75
2022/04/26 19:05:30;;;;;;;11.07;4.88;;;;;;;;;;5088157;28;20067;-75
2022/04/26 19:07:57;;;;;;;8.95;4.63;;;;;;;;;;5087189;28;20491;-75
2022/04/26 19:13:08;;;;;;;7.45;4.22;;;;;;;;;;5082623;28;20097;-75